createdAt,value
2023-04-03T00:00:00.698Z,9.7
2023-04-03T00:05:00.636Z,9.7
2023-04-03T00:10:00.664Z,8.3
2023-04-03T00:15:00.592Z,10.1
2023-04-03T00:20:00.661Z,7.6
2023-04-03T00:25:00.678Z,12.6
2023-04-03T00:30:00.648Z,9.7
2023-04-03T00:35:00.616Z,9.0
2023-04-03T00:40:00.641Z,5.0
2023-04-03T00:45:00.593Z,7.9
2023-04-03T00:50:00.714Z,7.6
2023-04-03T00:55:00.647Z,7.6
2023-04-03T01:00:00.642Z,4.0
2023-04-03T01:05:00.858Z,4.0
2023-04-03T01:10:00.681Z,4.0
2023-04-03T01:15:00.960Z,4.7
2023-04-03T01:20:00.650Z,3.2
2023-04-03T01:25:00.677Z,3.2
2023-04-03T01:30:00.718Z,4.3
2023-04-03T01:35:00.636Z,3.6
2023-04-03T01:40:00.674Z,2.2
2023-04-03T01:45:00.594Z,2.5
2023-04-03T01:50:00.655Z,2.5
2023-04-03T01:55:00.871Z,1.4
2023-04-03T02:00:00.681Z,0.0
2023-04-03T02:05:00.684Z,0.0
2023-04-03T02:10:00.663Z,2.5
2023-04-03T02:15:00.595Z,3.6
2023-04-03T02:20:00.663Z,2.2
2023-04-03T02:25:00.615Z,4.0
2023-04-03T02:30:00.660Z,2.9
2023-04-03T02:35:00.671Z,2.5
2023-04-03T02:40:00.709Z,5.0
2023-04-03T02:45:00.889Z,6.5
2023-04-03T02:50:00.666Z,2.5
2023-04-03T02:55:00.595Z,6.5
2023-04-03T03:00:00.714Z,3.6
2023-04-03T03:05:00.859Z,4.7
2023-04-03T03:10:00.614Z,3.6
2023-04-03T03:15:00.676Z,3.2
2023-04-03T03:20:00.666Z,2.5
2023-04-03T03:25:00.630Z,1.8
2023-04-03T03:30:00.697Z,3.2
2023-04-03T03:35:00.649Z,3.6
2023-04-03T03:40:00.663Z,2.5
2023-04-03T03:45:00.687Z,1.8
2023-04-03T03:50:00.632Z,0.0
2023-04-03T03:55:00.611Z,1.8
2023-04-03T04:00:00.654Z,4.7
2023-04-03T04:05:00.652Z,0.0
2023-04-03T04:10:00.626Z,0.0
2023-04-03T04:15:00.608Z,0.0
2023-04-03T04:20:00.629Z,0.0
2023-04-03T04:25:00.705Z,0.0
2023-04-03T04:30:00.647Z,0.0
2023-04-03T04:35:00.859Z,4.7
2023-04-03T04:40:00.720Z,2.5
2023-04-03T04:45:00.767Z,3.2
2023-04-03T04:50:00.620Z,4.0
2023-04-03T04:55:00.690Z,1.4
2023-04-03T05:00:07.957Z,2.2
2023-04-03T05:05:05.233Z,0.0
2023-04-03T05:10:00.712Z,3.2
2023-04-03T05:15:00.813Z,5.0
2023-04-03T05:20:00.617Z,2.9
2023-04-03T05:25:00.745Z,4.7
2023-04-03T05:30:00.697Z,6.1
2023-04-03T05:35:01.714Z,7.2
2023-04-03T05:40:00.681Z,6.1
2023-04-03T05:45:01.020Z,7.2
2023-04-03T05:50:00.634Z,5.8
2023-04-03T05:55:01.360Z,6.5
2023-04-03T06:00:00.649Z,8.6
2023-04-03T06:05:01.276Z,8.3
2023-04-03T06:10:00.728Z,6.5
2023-04-03T06:15:01.139Z,6.8
2023-04-03T06:20:00.699Z,7.9
2023-04-03T06:25:00.799Z,10.1
2023-04-03T06:30:00.668Z,8.6
2023-04-03T06:35:00.676Z,6.5
2023-04-03T06:40:00.669Z,5.8
2023-04-03T06:45:00.588Z,9.7
2023-04-03T06:50:00.712Z,10.8
2023-04-03T06:55:01.082Z,10.8
2023-04-03T07:00:00.705Z,8.3
2023-04-03T07:05:00.631Z,14.8
2023-04-03T07:10:00.701Z,16.2
2023-04-03T07:15:00.674Z,18.4
2023-04-03T07:20:00.683Z,12.2
2023-04-03T07:25:00.593Z,27.7
2023-04-03T07:30:00.667Z,17.3
2023-04-03T07:35:03.981Z,20.9
2023-04-03T07:40:00.716Z,27.7
2023-04-03T07:45:00.609Z,17.3
2023-04-03T07:50:00.768Z,16.9
2023-04-03T07:55:00.605Z,14.8
2023-04-03T08:00:00.709Z,19.1
2023-04-03T08:05:00.837Z,13.3
2023-04-03T08:10:00.679Z,22.0
2023-04-03T08:15:00.703Z,22.7
2023-04-03T08:20:00.752Z,18.7
2023-04-03T08:25:00.794Z,27.0
2023-04-03T08:30:00.673Z,16.9
2023-04-03T08:35:00.636Z,20.2
2023-04-03T08:40:00.634Z,15.5
2023-04-03T08:45:00.702Z,29.2
2023-04-03T08:50:01.065Z,16.9
2023-04-03T08:55:00.705Z,15.5
2023-04-03T09:00:00.711Z,22.0
2023-04-03T09:05:00.638Z,19.4
2023-04-03T09:10:00.657Z,14.0
2023-04-03T09:15:00.635Z,16.6
2023-04-03T09:20:00.664Z,15.8
2023-04-03T09:25:00.645Z,16.6
2023-04-03T09:30:00.688Z,21.6
2023-04-03T09:35:20.490Z,21.6
2023-04-03T09:40:00.664Z,18.4
2023-04-03T09:45:00.660Z,19.1
2023-04-03T09:50:00.708Z,19.1
2023-04-03T09:55:00.815Z,18.4
2023-04-03T10:00:00.767Z,18.7
2023-04-03T10:05:10.331Z,16.2
2023-04-03T10:10:00.683Z,21.6
2023-04-03T10:15:00.662Z,19.4
2023-04-03T10:20:00.635Z,14.0
2023-04-03T10:25:00.672Z,16.9
2023-04-03T10:30:00.815Z,14.8
2023-04-03T10:35:05.795Z,11.2
2023-04-03T10:40:00.705Z,20.9
2023-04-03T10:45:00.663Z,21.2
2023-04-03T10:50:00.680Z,17.6
2023-04-03T10:55:00.698Z,10.1
2023-04-03T11:00:00.661Z,25.6
2023-04-03T11:05:00.881Z,11.9
2023-04-03T11:10:00.622Z,14.8
2023-04-03T11:15:08.789Z,13.0
2023-04-03T11:20:00.684Z,14.0
2023-04-03T11:25:00.673Z,16.2
2023-04-03T11:30:00.657Z,13.0
2023-04-03T11:35:00.690Z,16.9
2023-04-03T11:40:00.728Z,16.2
2023-04-03T11:45:00.684Z,16.2
2023-04-03T11:50:01.620Z,13.0
2023-04-03T11:55:00.663Z,15.1
2023-04-03T12:00:00.735Z,13.3
2023-04-03T12:05:00.676Z,19.1
2023-04-03T12:10:00.667Z,20.2
2023-04-03T12:15:00.720Z,16.2
2023-04-03T12:20:00.702Z,20.5
2023-04-03T12:25:00.596Z,12.2
2023-04-03T12:30:00.727Z,17.6
2023-04-03T12:35:00.789Z,26.3
2023-04-03T12:40:00.718Z,17.6
2023-04-03T12:45:00.678Z,12.6
2023-04-03T12:50:00.710Z,20.9
2023-04-03T12:55:00.659Z,11.5
2023-04-03T13:00:00.714Z,9.4
2023-04-03T13:05:00.760Z,14.4
2023-04-03T13:10:00.739Z,11.2
2023-04-03T13:15:00.623Z,11.9
2023-04-03T13:20:00.846Z,11.2
2023-04-03T13:25:04.194Z,18.4
2023-04-03T13:30:00.921Z,8.6
2023-04-03T13:35:18.919Z,14.4
2023-04-03T13:40:00.849Z,10.8
2023-04-03T13:45:00.601Z,17.6
2023-04-03T13:50:00.855Z,10.4
2023-04-03T13:55:00.714Z,9.7
2023-04-03T14:00:00.829Z,18.7
2023-04-03T14:05:00.731Z,20.5
2023-04-03T14:10:01.228Z,24.8
2023-04-03T14:15:00.666Z,20.9
2023-04-03T14:20:00.795Z,20.5
2023-04-03T14:25:00.730Z,18.7
2023-04-03T14:30:00.904Z,16.2
2023-04-03T14:35:00.633Z,12.6
2023-04-03T14:40:00.665Z,9.4
2023-04-03T14:45:00.662Z,13.3
2023-04-03T14:50:00.783Z,13.7
2023-04-03T14:55:00.599Z,15.1
2023-04-03T15:00:00.866Z,8.3
2023-04-03T15:05:00.633Z,13.0
2023-04-03T15:10:00.855Z,15.8
2023-04-03T15:15:04.243Z,10.8
2023-04-03T15:20:00.742Z,11.9
2023-04-03T15:25:00.697Z,16.6
2023-04-03T15:30:00.697Z,9.0
2023-04-03T15:35:00.650Z,16.2
2023-04-03T15:40:00.749Z,12.2
2023-04-03T15:45:00.600Z,15.8
2023-04-03T15:50:01.159Z,15.8
2023-04-03T15:55:00.653Z,11.9
2023-04-03T16:00:01.110Z,13.0
2023-04-03T16:05:00.734Z,13.7
2023-04-03T16:10:00.843Z,8.3
2023-04-03T16:15:00.603Z,19.8
2023-04-03T16:20:00.655Z,16.9
2023-04-03T16:25:00.656Z,16.6
2023-04-03T16:30:00.819Z,11.9
2023-04-03T16:40:00.638Z,13.0
2023-04-03T16:45:00.616Z,16.9
2023-04-03T16:50:01.642Z,9.0
2023-04-03T16:55:00.619Z,6.8
2023-04-03T17:00:00.698Z,7.6
2023-04-03T17:05:00.715Z,7.2
2023-04-03T17:10:00.765Z,10.8
2023-04-03T17:15:00.659Z,9.4
2023-04-03T17:20:00.882Z,12.2
2023-04-03T17:25:00.590Z,13.7
2023-04-03T17:30:00.755Z,14.8
2023-04-03T17:35:00.660Z,15.1
2023-04-03T17:40:00.755Z,12.6
2023-04-03T17:45:00.652Z,11.5
2023-04-03T17:50:00.640Z,12.2
2023-04-03T17:55:00.737Z,8.3
2023-04-03T18:00:00.862Z,14.0
2023-04-03T18:05:00.610Z,13.3
2023-04-03T18:10:00.676Z,8.3
2023-04-03T18:15:00.659Z,7.2
2023-04-03T18:20:00.644Z,7.9
2023-04-03T18:25:00.632Z,5.0
2023-04-03T18:30:00.681Z,7.2
2023-04-03T18:35:00.699Z,7.6
2023-04-03T18:40:00.663Z,9.7
2023-04-03T18:45:00.640Z,6.5
2023-04-03T18:50:00.699Z,8.6
2023-04-03T18:55:00.682Z,11.2
2023-04-03T19:00:00.666Z,6.5
2023-04-03T19:05:00.637Z,5.4
2023-04-03T19:10:00.645Z,5.8
2023-04-03T19:15:00.609Z,6.5
2023-04-03T19:20:00.779Z,6.8
2023-04-03T19:25:00.584Z,6.5
2023-04-03T19:30:00.681Z,4.7
2023-04-03T19:35:00.651Z,11.5
2023-04-03T19:40:00.735Z,8.6
2023-04-03T19:45:00.600Z,10.4
2023-04-03T19:50:00.666Z,6.8
2023-04-03T19:55:00.674Z,7.2
2023-04-03T20:00:00.658Z,8.6
2023-04-03T20:05:00.600Z,8.3
2023-04-03T20:10:00.695Z,7.9
2023-04-03T20:15:00.627Z,5.0
2023-04-03T20:20:00.739Z,5.8
2023-04-03T20:25:06.993Z,8.6
2023-04-03T20:30:04.438Z,3.6
2023-04-03T20:35:05.125Z,4.0
2023-04-03T20:40:00.681Z,5.0
2023-04-03T20:45:00.675Z,3.6
2023-04-03T20:50:00.657Z,6.8
2023-04-03T20:55:00.654Z,3.6
2023-04-03T21:00:00.744Z,4.0
2023-04-03T21:05:00.624Z,2.9
2023-04-03T21:10:00.663Z,3.6
2023-04-03T21:15:00.603Z,3.2
2023-04-03T21:20:00.629Z,5.0
2023-04-03T21:25:00.582Z,4.3
2023-04-03T21:30:00.670Z,4.3
2023-04-03T21:35:00.651Z,4.7
2023-04-03T21:40:00.727Z,2.9
2023-04-03T21:45:00.614Z,5.8
2023-04-03T21:50:00.641Z,5.0
2023-04-03T21:55:00.661Z,5.0
2023-04-03T22:00:01.190Z,4.7
2023-04-03T22:05:00.751Z,4.0
2023-04-03T22:10:00.692Z,4.7
2023-04-03T22:15:00.685Z,3.2
2023-04-03T22:20:00.724Z,2.2
2023-04-03T22:25:00.718Z,2.2
2023-04-03T22:30:00.597Z,1.8
2023-04-03T22:35:00.702Z,3.2
2023-04-03T22:40:00.650Z,3.2
2023-04-03T22:45:00.600Z,3.6
2023-04-03T22:50:00.608Z,3.2
2023-04-03T23:00:00.710Z,2.2
2023-04-03T23:05:00.638Z,3.2
2023-04-03T23:10:00.646Z,4.3
2023-04-03T23:15:00.600Z,3.6
2023-04-03T23:20:00.791Z,3.6
2023-04-03T23:25:00.874Z,2.5
2023-04-03T23:30:00.620Z,3.2
2023-04-03T23:35:00.610Z,4.0
2023-04-03T23:40:00.613Z,4.0
2023-04-03T23:45:00.648Z,3.2
2023-04-03T23:50:00.648Z,3.6
2023-04-03T23:55:00.896Z,2.2
